Time;durP1;ratioP1;P1;durP2;ratioP2;P2;SDS_P1;SDS_P2;PMS_P1;PMS_P2;Temp;Humidity;BMP_temperature;BMP_pressure;BME280_temperature;BME280_humidity;BME280_pressure;Samples;Min_cycle;Max_cycle;Signal;HPM_P1;HPM_P2
2023/12/10 00:00:32;;;;;;;0.00;0.00;;;22.00;44.20;;;;;;5051115;28;20241;-47
2023/12/10 00:03:03;;;;;;;0.00;0.00;;;22.00;44.30;;;;;;5050576;28;20698;-46
2023/12/10 00:05:34;;;;;;;0.03;0.03;;;22.00;44.30;;;;;;5047117;28;20202;-45
2023/12/10 00:08:07;;;;;;;0.00;0.00;;;22.00;44.40;;;;;;5048771;28;20188;-46
2023/12/10 00:10:37;;;;;;;0.00;0.00;;;22.00;44.40;;;;;;5051198;28;20202;-52
2023/12/10 00:13:09;;;;;;;0.00;0.00;;;22.00;44.50;;;;;;5049919;28;20227;-47
2023/12/10 00:15:40;;;;;;;0.00;0.00;;;22.00;44.60;;;;;;5030325;28;20353;-48
2023/12/10 00:18:11;;;;;;;0.00;0.00;;;22.00;44.50;;;;;;5048808;28;20188;-48
2023/12/10 00:20:41;;;;;;;0.03;0.03;;;22.00;44.60;;;;;;5050215;28;20659;-47
2023/12/10 00:23:14;;;;;;;0.00;0.00;;;22.00;44.60;;;;;;5050321;28;20227;-47
2023/12/10 00:25:47;;;;;;;0.00;0.00;;;22.00;44.60;;;;;;5050777;28;20195;-45
2023/12/10 00:28:17;;;;;;;0.00;0.00;;;22.00;44.60;;;;;;5037354;28;20560;-46
2023/12/10 00:30:48;;;;;;;0.00;0.00;;;22.00;44.60;;;;;;5037349;28;20187;-48
2023/12/10 00:33:19;;;;;;;0.00;0.00;;;22.00;44.60;;;;;;5048539;28;20219;-47
2023/12/10 00:35:50;;;;;;;0.00;0.00;;;22.00;44.50;;;;;;5062360;22;20223;-55
2023/12/10 00:38:23;;;;;;;0.10;0.10;;;22.00;44.60;;;;;;5049270;28;20199;-50
2023/12/10 00:40:53;;;;;;;0.00;0.00;;;22.00;44.50;;;;;;5050007;28;20191;-47
2023/12/10 00:43:24;;;;;;;0.00;0.00;;;22.00;44.40;;;;;;5031633;28;20219;-52
2023/12/10 00:45:55;;;;;;;0.00;0.00;;;22.10;44.60;;;;;;5030003;28;20203;-53
2023/12/10 00:48:26;;;;;;;0.00;0.00;;;22.00;44.80;;;;;;5048508;28;20454;-53
2023/12/10 00:50:56;;;;;;;0.00;0.00;;;22.10;44.90;;;;;;5049780;28;20202;-51
2023/12/10 00:53:29;;;;;;;0.00;0.00;;;22.10;44.90;;;;;;5049363;28;20215;-51
2023/12/10 00:56:00;;;;;;;0.00;0.00;;;22.10;44.90;;;;;;5049445;28;20196;-54
2023/12/10 00:58:31;;;;;;;0.00;0.00;;;22.10;44.80;;;;;;5038234;28;20688;-51
2023/12/10 01:01:02;;;;;;;0.00;0.00;;;22.10;44.70;;;;;;5034347;28;20219;-52
2023/12/10 01:03:33;;;;;;;0.00;0.00;;;22.10;44.70;;;;;;5051868;28;20309;-52
2023/12/10 01:06:03;;;;;;;0.00;0.00;;;22.10;44.60;;;;;;5053976;28;20195;-52
2023/12/10 01:08:36;;;;;;;0.00;0.00;;;22.10;44.50;;;;;;5054415;28;20202;-52
2023/12/10 01:11:08;;;;;;;0.00;0.00;;;22.10;44.50;;;;;;5053701;28;20242;-56
2023/12/10 01:13:38;;;;;;;0.00;0.00;;;22.10;44.50;;;;;;5053428;28;20672;-54
2023/12/10 01:16:10;;;;;;;0.00;0.00;;;22.10;44.50;;;;;;5068005;28;20458;-53
2023/12/10 01:18:41;;;;;;;0.00;0.00;;;22.10;44.50;;;;;;5055566;28;20196;-55
2023/12/10 01:21:11;;;;;;;0.00;0.00;;;22.10;44.50;;;;;;5053554;28;20196;-55
2023/12/10 01:23:44;;;;;;;0.00;0.00;;;22.10;44.40;;;;;;5053380;28;20254;-53
2023/12/10 01:26:15;;;;;;;0.00;0.00;;;22.10;44.40;;;;;;5053873;28;20285;-50
2023/12/10 01:28:46;;;;;;;0.00;0.00;;;22.10;44.40;;;;;;5052897;28;20230;-50
2023/12/10 01:31:16;;;;;;;0.00;0.00;;;22.10;44.40;;;;;;5052894;28;20196;-53
2023/12/10 01:33:47;;;;;;;0.00;0.00;;;22.10;44.50;;;;;;5053188;28;20223;-55
2023/12/10 01:36:25;;;;;;;0.00;0.00;;;22.20;44.40;;;;;;5054739;28;20207;-55
2023/12/10 01:38:58;;;;;;;0.00;0.00;;;22.20;44.50;;;;;;5053604;28;20192;-53
2023/12/10 01:41:28;;;;;;;0.00;0.00;;;22.20;44.50;;;;;;5053225;28;20226;-55
2023/12/10 01:43:59;;;;;;;0.00;0.00;;;22.20;44.50;;;;;;5053217;28;20241;-55
2023/12/10 01:46:30;;;;;;;0.00;0.00;;;22.20;44.50;;;;;;5053268;28;20655;-54
2023/12/10 01:49:02;;;;;;;0.00;0.00;;;22.20;44.50;;;;;;5052723;28;20444;-49
2023/12/10 01:51:33;;;;;;;0.00;0.00;;;22.20;44.50;;;;;;5053101;28;20199;-50
2023/12/10 01:54:06;;;;;;;0.00;0.00;;;22.20;44.50;;;;;;5052139;28;20203;-51
2023/12/10 01:56:37;;;;;;;0.00;0.00;;;22.20;44.50;;;;;;5052397;28;20202;-53
2023/12/10 01:59:08;;;;;;;0.00;0.00;;;22.30;44.40;;;;;;5046501;28;20257;-54
2023/12/10 02:01:39;;;;;;;0.10;0.10;;;22.30;44.40;;;;;;5053114;28;20196;-50
2023/12/10 02:04:10;;;;;;;0.00;0.00;;;22.30;44.40;;;;;;5053083;28;20234;-50
2023/12/10 02:06:41;;;;;;;0.00;0.00;;;22.30;44.40;;;;;;5053746;28;20195;-53
2023/12/10 02:09:18;;;;;;;0.00;0.00;;;22.30;44.60;;;;;;5053490;28;20198;-52
2023/12/10 02:11:49;;;;;;;0.00;0.00;;;22.30;44.40;;;;;;5051517;28;20281;-56
2023/12/10 02:14:19;;;;;;;0.00;0.00;;;22.30;44.40;;;;;;5052630;28;20207;-56
2023/12/10 02:16:50;;;;;;;0.00;0.00;;;22.30;44.40;;;;;;5052863;28;20192;-56
2023/12/10 02:19:21;;;;;;;0.00;0.00;;;22.30;44.40;;;;;;5037231;28;20195;-56
2023/12/10 02:21:54;;;;;;;0.00;0.00;;;22.30;44.40;;;;;;5053533;28;20639;-54
2023/12/10 02:24:42;;;;;;;0.00;0.00;;;22.40;44.50;;;;;;5049621;28;20625;-56
2023/12/10 02:27:16;;;;;;;0.00;0.00;;;22.40;44.40;;;;;;5053168;28;20191;-54
2023/12/10 02:29:46;;;;;;;0.10;0.10;;;22.40;44.30;;;;;;5053258;28;20199;-56
2023/12/10 02:32:17;;;;;;;0.00;0.00;;;22.40;44.30;;;;;;5053157;28;20707;-56
2023/12/10 02:37:24;;;;;;;0.00;0.00;;;22.40;44.30;;;;;;5072074;28;20214;-48
2023/12/10 02:39:54;;;;;;;0.10;0.10;;;22.40;44.30;;;;;;5073129;28;20191;-48
2023/12/10 02:42:27;;;;;;;0.00;0.00;;;22.50;44.30;;;;;;5072688;28;20215;-47
2023/12/10 02:44:58;;;;;;;0.00;0.00;;;22.50;44.30;;;;;;5073351;28;20201;-48
2023/12/10 02:47:28;;;;;;;0.00;0.00;;;22.50;44.20;;;;;;5072852;28;20586;-47
2023/12/10 02:49:59;;;;;;;0.00;0.00;;;22.50;44.20;;;;;;5073170;28;20205;-50
2023/12/10 02:52:30;;;;;;;0.00;0.00;;;22.50;44.20;;;;;;5068652;28;20211;-47
2023/12/10 02:55:00;;;;;;;0.00;0.00;;;22.50;44.20;;;;;;5052906;28;20364;-49
2023/12/10 02:57:33;;;;;;;0.00;0.00;;;22.60;44.10;;;;;;5052603;28;20609;-48
2023/12/10 03:00:05;;;;;;;0.00;0.00;;;22.60;44.10;;;;;;5052281;28;20217;-48
2023/12/10 03:02:35;;;;;;;0.00;0.00;;;22.60;44.10;;;;;;5051980;28;20219;-47
2023/12/10 03:05:06;;;;;;;0.00;0.00;;;22.60;44.00;;;;;;5052559;28;20568;-50
2023/12/10 03:07:37;;;;;;;0.00;0.00;;;22.60;44.00;;;;;;5052069;28;20562;-47
2023/12/10 03:10:08;;;;;;;0.00;0.00;;;22.60;44.00;;;;;;5052745;28;20557;-48
2023/12/10 03:12:41;;;;;;;0.00;0.00;;;22.60;44.00;;;;;;5052267;28;20219;-47
2023/12/10 03:15:12;;;;;;;0.00;0.00;;;22.60;43.90;;;;;;5070487;28;20557;-47
2023/12/10 03:17:43;;;;;;;0.00;0.00;;;22.60;44.00;;;;;;5071730;28;20572;-46
2023/12/10 03:20:14;;;;;;;0.00;0.00;;;22.60;43.90;;;;;;5071575;28;20566;-48
2023/12/10 03:22:45;;;;;;;0.00;0.00;;;22.60;43.90;;;;;;5070715;28;20222;-48
2023/12/10 03:25:15;;;;;;;0.00;0.00;;;22.70;43.90;;;;;;5071986;28;20194;-47
2023/12/10 03:27:48;;;;;;;0.00;0.00;;;22.60;43.80;;;;;;5071574;28;20646;-48
2023/12/10 03:30:19;;;;;;;0.00;0.00;;;22.70;43.90;;;;;;5071592;28;20213;-47
2023/12/10 03:32:49;;;;;;;0.00;0.00;;;22.70;43.80;;;;;;5071301;28;20215;-47
2023/12/10 03:35:20;;;;;;;0.00;0.00;;;22.70;43.80;;;;;;5071535;28;20472;-49
2023/12/10 03:37:51;;;;;;;0.00;0.00;;;22.70;43.80;;;;;;5053581;28;20194;-47
2023/12/10 03:40:22;;;;;;;0.00;0.00;;;22.80;43.80;;;;;;5051915;28;20562;-48
2023/12/10 03:42:55;;;;;;;0.00;0.00;;;22.70;43.70;;;;;;5051463;28;20230;-47
2023/12/10 03:45:26;;;;;;;0.00;0.00;;;22.70;43.70;;;;;;5054108;28;20288;-47
2023/12/10 03:47:57;;;;;;;0.00;0.00;;;22.80;43.70;;;;;;5051350;28;20195;-47
2023/12/10 03:50:27;;;;;;;0.00;0.00;;;22.80;43.70;;;;;;5050997;28;20670;-47
2023/12/10 03:52:58;;;;;;;0.00;0.00;;;22.80;43.70;;;;;;5056575;28;20692;-47
2023/12/10 03:55:29;;;;;;;0.00;0.00;;;22.80;43.70;;;;;;5070978;28;20198;-47
2023/12/10 03:58:01;;;;;;;0.00;0.00;;;22.80;43.70;;;;;;5052146;28;20199;-50
2023/12/10 04:00:32;;;;;;;0.05;0.05;;;22.80;43.60;;;;;;5064009;28;20190;-47
2023/12/10 04:03:03;;;;;;;0.00;0.00;;;22.80;43.60;;;;;;5070485;28;20210;-48
2023/12/10 04:05:33;;;;;;;0.00;0.00;;;22.80;43.60;;;;;;5056765;28;20550;-49
2023/12/10 04:08:04;;;;;;;0.00;0.00;;;22.80;43.50;;;;;;5053716;28;20283;-47
2023/12/10 04:10:35;;;;;;;0.00;0.00;;;22.80;43.50;;;;;;5070425;28;20191;-53
2023/12/10 04:13:07;;;;;;;0.00;0.00;;;22.80;43.50;;;;;;5068532;28;20218;-46
2023/12/10 04:15:38;;;;;;;0.00;0.00;;;22.80;43.50;;;;;;5050633;28;20266;-50
2023/12/10 04:18:09;;;;;;;0.00;0.00;;;22.80;43.50;;;;;;5050630;28;20199;-46
2023/12/10 04:20:40;;;;;;;0.00;0.00;;;22.80;43.50;;;;;;5049795;28;20202;-51
2023/12/10 04:23:10;;;;;;;0.00;0.00;;;22.90;43.50;;;;;;5055288;28;20214;-49
2023/12/10 04:25:41;;;;;;;0.00;0.00;;;22.80;43.40;;;;;;5054337;28;20195;-53
2023/12/10 04:28:14;;;;;;;0.00;0.00;;;22.90;43.40;;;;;;5068193;28;20198;-54
2023/12/10 04:30:44;;;;;;;0.00;0.00;;;22.90;43.40;;;;;;5070772;28;20191;-51
2023/12/10 04:33:15;;;;;;;0.00;0.00;;;22.90;43.40;;;;;;5068191;28;20298;-47
2023/12/10 04:35:46;;;;;;;0.10;0.10;;;22.90;43.30;;;;;;5053688;28;20678;-48
2023/12/10 04:38:17;;;;;;;0.00;0.00;;;22.90;43.30;;;;;;5053491;28;20284;-46
2023/12/10 04:40:47;;;;;;;0.00;0.00;;;22.90;43.80;;;;;;5062621;28;20195;-46
2023/12/10 04:43:20;;;;;;;0.00;0.00;;;22.90;43.20;;;;;;5071963;28;20214;-46
2023/12/10 04:45:51;;;;;;;0.00;0.00;;;22.90;43.10;;;;;;5054456;28;20213;-49
2023/12/10 04:48:21;;;;;;;0.05;0.05;;;22.90;43.10;;;;;;5054622;28;20199;-50
2023/12/10 04:50:52;;;;;;;0.00;0.00;;;22.90;43.00;;;;;;5053213;28;20197;-47
2023/12/10 04:53:23;;;;;;;0.00;0.00;;;22.90;43.00;;;;;;5063230;28;20551;-48
2023/12/10 04:55:54;;;;;;;0.00;0.00;;;22.90;43.00;;;;;;5073920;28;20201;-47
2023/12/10 04:58:26;;;;;;;0.00;0.00;;;22.90;43.00;;;;;;5071810;28;20199;-51
2023/12/10 05:00:57;;;;;;;0.00;0.00;;;22.90;43.00;;;;;;5054001;28;20654;-53
2023/12/10 05:03:28;;;;;;;0.00;0.00;;;22.90;43.10;;;;;;5053198;28;20222;-50
2023/12/10 05:05:59;;;;;;;0.00;0.00;;;22.90;43.10;;;;;;5053298;28;20198;-50
2023/12/10 05:08:29;;;;;;;0.00;0.00;;;22.90;43.10;;;;;;5055891;28;20198;-55
2023/12/10 05:11:00;;;;;;;0.00;0.00;;;22.90;43.10;;;;;;5054524;28;20210;-50
2023/12/10 05:13:33;;;;;;;0.00;0.00;;;22.90;43.10;;;;;;5052754;28;20215;-47
2023/12/10 05:16:04;;;;;;;0.00;0.00;;;22.90;43.10;;;;;;5053978;28;20286;-49
2023/12/10 05:18:35;;;;;;;0.00;0.00;;;22.90;43.00;;;;;;5053367;28;20595;-52
2023/12/10 05:21:06;;;;;;;0.00;0.00;;;23.00;43.10;;;;;;5058634;28;20198;-49
2023/12/10 05:23:36;;;;;;;0.00;0.00;;;22.90;42.90;;;;;;5062453;28;21095;-52
2023/12/10 05:26:07;;;;;;;0.00;0.00;;;22.90;42.90;;;;;;5053866;28;20195;-54
2023/12/10 05:28:40;;;;;;;0.00;0.00;;;23.00;42.80;;;;;;5053607;28;20199;-53
2023/12/10 05:31:11;;;;;;;0.00;0.00;;;23.00;42.70;;;;;;5053920;28;20200;-49
2023/12/10 05:33:42;;;;;;;0.00;0.00;;;22.90;42.60;;;;;;5060282;28;20218;-47
2023/12/10 05:36:13;;;;;;;0.00;0.00;;;23.00;42.60;;;;;;5065068;22;20230;-56
2023/12/10 05:38:44;;;;;;;0.00;0.00;;;23.00;42.60;;;;;;5052902;28;20225;-53
2023/12/10 05:41:15;;;;;;;0.00;0.00;;;23.00;42.60;;;;;;5053505;28;20219;-53
2023/12/10 05:43:47;;;;;;;0.00;0.00;;;22.90;42.50;;;;;;5042323;28;20227;-49
2023/12/10 05:46:18;;;;;;;0.03;0.03;;;22.90;43.10;;;;;;5051615;28;20206;-49
2023/12/10 05:48:49;;;;;;;0.00;0.00;;;22.90;42.50;;;;;;5053634;28;20217;-51
2023/12/10 05:51:20;;;;;;;0.00;0.00;;;22.90;42.60;;;;;;5052886;28;20222;-53
2023/12/10 05:53:50;;;;;;;0.00;0.00;;;22.90;42.60;;;;;;5052636;28;20219;-55
2023/12/10 05:56:21;;;;;;;0.00;0.00;;;23.00;42.70;;;;;;5053542;28;20195;-53
2023/12/10 05:58:54;;;;;;;0.08;0.08;;;23.00;42.70;;;;;;5051269;28;20669;-53
2023/12/10 06:01:24;;;;;;;0.00;0.00;;;22.90;42.80;;;;;;5053838;28;20195;-51
2023/12/10 06:03:55;;;;;;;0.00;0.00;;;23.00;42.80;;;;;;5052454;28;20222;-50
2023/12/10 06:06:26;;;;;;;0.00;0.00;;;22.90;42.80;;;;;;5052937;28;20208;-50
2023/12/10 06:08:57;;;;;;;0.00;0.00;;;22.90;42.70;;;;;;5053069;28;20200;-49
2023/12/10 06:11:27;;;;;;;0.00;0.00;;;23.00;42.80;;;;;;5053168;28;20198;-52
2023/12/10 06:14:00;;;;;;;0.00;0.00;;;23.00;42.80;;;;;;5051815;28;20231;-54
2023/12/10 06:16:31;;;;;;;0.00;0.00;;;23.00;42.70;;;;;;5052563;28;20196;-52
2023/12/10 06:19:02;;;;;;;0.00;0.00;;;23.00;42.70;;;;;;5052639;28;20210;-54
2023/12/10 06:21:33;;;;;;;0.00;0.00;;;23.00;42.70;;;;;;5052571;28;20283;-54
2023/12/10 06:24:04;;;;;;;0.00;0.00;;;22.90;42.60;;;;;;5051876;28;20219;-50
2023/12/10 06:26:35;;;;;;;0.00;0.00;;;23.00;42.60;;;;;;5052365;28;20238;-51
2023/12/10 06:29:08;;;;;;;0.00;0.00;;;23.00;42.60;;;;;;5052834;28;20268;-52
2023/12/10 06:31:38;;;;;;;0.00;0.00;;;23.00;42.60;;;;;;5042422;28;20189;-54
2023/12/10 06:34:09;;;;;;;0.00;0.00;;;23.00;42.60;;;;;;5034678;28;20211;-56
2023/12/10 06:36:40;;;;;;;0.00;0.00;;;23.00;42.70;;;;;;5076619;22;20230;-49
2023/12/10 06:39:10;;;;;;;0.00;0.00;;;22.90;42.60;;;;;;5071914;28;20673;-51
2023/12/10 06:41:41;;;;;;;0.00;0.00;;;22.90;42.60;;;;;;5072301;28;20202;-47
2023/12/10 06:44:21;;;;;;;0.00;0.00;;;22.90;42.60;;;;;;5072634;28;20574;-47
2023/12/10 06:46:52;;;;;;;0.00;0.00;;;23.00;42.70;;;;;;5072806;28;20279;-47
2023/12/10 06:49:22;;;;;;;0.08;0.08;;;23.00;43.30;;;;;;5072333;28;20199;-49
2023/12/10 06:51:53;;;;;;;0.10;0.10;;;22.90;42.70;;;;;;5072631;28;20571;-49
2023/12/10 06:54:24;;;;;;;0.00;0.00;;;23.00;42.80;;;;;;5038074;28;20223;-46
2023/12/10 06:56:54;;;;;;;0.00;0.00;;;23.00;42.70;;;;;;5032971;28;20361;-46
2023/12/10 06:59:27;;;;;;;0.00;0.00;;;23.00;42.80;;;;;;5032468;28;20663;-47
2023/12/10 07:01:58;;;;;;;0.10;0.10;;;22.90;42.70;;;;;;5032367;28;20226;-48
2023/12/10 07:04:29;;;;;;;0.00;0.00;;;23.00;42.70;;;;;;5034070;28;20223;-47
2023/12/10 07:06:59;;;;;;;0.00;0.00;;;23.00;42.70;;;;;;5032168;28;20192;-46
2023/12/10 07:09:30;;;;;;;0.00;0.00;;;22.90;42.60;;;;;;5031908;28;20204;-46
2023/12/10 07:12:01;;;;;;;0.00;0.00;;;22.90;42.60;;;;;;5031503;28;20219;-47
2023/12/10 07:14:33;;;;;;;0.00;0.00;;;23.00;42.70;;;;;;5031466;28;20192;-47
2023/12/10 07:17:04;;;;;;;0.00;0.00;;;23.00;42.70;;;;;;5032170;28;20204;-48
2023/12/10 07:19:35;;;;;;;0.00;0.00;;;22.90;42.60;;;;;;5031777;28;20207;-47
2023/12/10 07:22:06;;;;;;;0.00;0.00;;;22.90;42.60;;;;;;5032394;28;20216;-47
2023/12/10 07:24:36;;;;;;;0.00;0.00;;;22.90;42.60;;;;;;5031932;28;20230;-48
2023/12/10 07:27:07;;;;;;;0.00;0.00;;;22.90;42.60;;;;;;5032222;28;20200;-48
2023/12/10 07:29:40;;;;;;;0.00;0.00;;;22.90;42.60;;;;;;5031942;28;20200;-48
2023/12/10 07:32:11;;;;;;;0.00;0.00;;;22.90;42.60;;;;;;5031538;28;20216;-47
2023/12/10 07:34:41;;;;;;;0.00;0.00;;;22.90;42.70;;;;;;5031415;28;20221;-47
2023/12/10 07:37:12;;;;;;;0.00;0.00;;;22.90;42.70;;;;;;5048679;28;20200;-46
2023/12/10 07:39:43;;;;;;;0.00;0.00;;;22.90;42.70;;;;;;5051573;28;20654;-46
2023/12/10 07:42:16;;;;;;;0.00;0.00;;;22.90;42.70;;;;;;5051625;28;20218;-46
2023/12/10 07:44:48;;;;;;;0.00;0.00;;;22.80;42.60;;;;;;5051171;28;20223;-47
2023/12/10 07:47:20;;;;;;;0.00;0.00;;;22.80;42.70;;;;;;5051308;28;20203;-47
2023/12/10 07:49:50;;;;;;;0.03;0.03;;;22.80;42.40;;;;;;5051058;28;20278;-50
2023/12/10 07:52:21;;;;;;;0.03;0.03;;;22.80;42.10;;;;;;5047490;28;20608;-47
2023/12/10 07:54:52;;;;;;;0.00;0.00;;;22.80;42.10;;;;;;5051415;28;20201;-47
2023/12/10 07:57:22;;;;;;;0.00;0.00;;;22.70;42.10;;;;;;5045130;28;20196;-46
2023/12/10 07:59:55;;;;;;;0.00;0.00;;;22.70;42.10;;;;;;5038120;28;20206;-48
2023/12/10 08:02:26;;;;;;;0.00;0.00;;;22.70;42.30;;;;;;5039220;28;20207;-46
2023/12/10 08:04:56;;;;;;;0.00;0.00;;;22.70;42.30;;;;;;5031847;28;20220;-45
2023/12/10 08:07:27;;;;;;;0.00;0.00;;;22.70;42.30;;;;;;5039578;28;20556;-49
2023/12/10 08:09:58;;;;;;;0.00;0.00;;;22.70;42.40;;;;;;5033491;28;20266;-47
2023/12/10 08:12:29;;;;;;;0.00;0.00;;;22.60;42.30;;;;;;5039076;28;20215;-46
2023/12/10 08:15:01;;;;;;;0.00;0.00;;;22.60;42.30;;;;;;5047760;28;20191;-45
2023/12/10 08:17:32;;;;;;;0.00;0.00;;;22.60;42.30;;;;;;5039060;28;20202;-46
2023/12/10 08:20:03;;;;;;;0.00;0.00;;;22.60;42.30;;;;;;5051001;28;20205;-47
2023/12/10 08:22:33;;;;;;;0.00;0.00;;;22.60;42.40;;;;;;5050589;28;20215;-47
2023/12/10 08:25:04;;;;;;;0.00;0.00;;;22.60;42.40;;;;;;5034880;28;20247;-46
2023/12/10 08:27:35;;;;;;;0.00;0.00;;;22.60;42.40;;;;;;5037969;28;20734;-46
2023/12/10 08:30:09;;;;;;;0.08;0.08;;;22.50;42.30;;;;;;5049909;28;20188;-47
2023/12/10 08:32:39;;;;;;;0.10;0.10;;;22.50;42.40;;;;;;5053481;28;20219;-46
2023/12/10 08:37:45;;;;;;;0.00;0.00;;;22.50;42.50;;;;;;5049410;28;20299;-52
2023/12/10 08:40:16;;;;;;;0.00;0.00;;;22.50;42.50;;;;;;5050782;28;20201;-52
2023/12/10 08:42:47;;;;;;;0.05;0.05;;;22.50;42.60;;;;;;5049916;28;20207;-48
2023/12/10 08:45:20;;;;;;;0.00;0.00;;;22.50;42.70;;;;;;5050454;28;20223;-53
2023/12/10 08:47:50;;;;;;;0.00;0.00;;;22.50;42.80;;;;;;5048999;28;20215;-48
2023/12/10 08:50:21;;;;;;;0.00;0.00;;;22.50;42.80;;;;;;5050447;28;20195;-46
2023/12/10 08:52:52;;;;;;;0.00;0.00;;;22.40;42.80;;;;;;5045420;28;20215;-52
2023/12/10 08:55:23;;;;;;;0.00;0.00;;;22.40;42.90;;;;;;5050298;28;20207;-52
2023/12/10 08:57:53;;;;;;;0.00;0.00;;;22.40;42.90;;;;;;5041400;28;20196;-49
2023/12/10 09:00:26;;;;;;;0.00;0.00;;;22.40;43.00;;;;;;5030804;28;20195;-51
2023/12/10 09:02:57;;;;;;;0.08;0.08;;;22.40;43.00;;;;;;5032103;28;20212;-53
2023/12/10 09:05:27;;;;;;;0.00;0.00;;;22.40;43.10;;;;;;5043124;28;20224;-50
2023/12/10 09:07:58;;;;;;;0.00;0.00;;;22.40;43.10;;;;;;5040732;28;20712;-51
2023/12/10 09:10:29;;;;;;;0.00;0.00;;;22.30;43.10;;;;;;5029886;28;20201;-52
2023/12/10 09:13:00;;;;;;;0.00;0.00;;;22.30;43.10;;;;;;5030202;28;20231;-52
2023/12/10 09:15:32;;;;;;;0.00;0.00;;;22.30;43.30;;;;;;5030845;28;20211;-51
2023/12/10 09:18:03;;;;;;;0.00;0.00;;;22.30;43.40;;;;;;5029931;28;20199;-52
2023/12/10 09:20:34;;;;;;;0.00;0.00;;;22.30;43.40;;;;;;5032656;28;20557;-53
2023/12/10 09:23:05;;;;;;;0.00;0.00;;;22.30;43.50;;;;;;5039600;28;20215;-51
2023/12/10 09:25:35;;;;;;;0.00;0.00;;;22.30;43.50;;;;;;5053741;28;20227;-50
2023/12/10 09:28:06;;;;;;;0.00;0.00;;;22.20;43.40;;;;;;5044264;28;20276;-52
2023/12/10 09:30:39;;;;;;;0.00;0.00;;;22.20;43.40;;;;;;5033737;28;20202;-52
2023/12/10 09:33:10;;;;;;;0.10;0.10;;;22.20;43.40;;;;;;5047276;28;20226;-50
2023/12/10 09:35:41;;;;;;;0.10;0.10;;;22.20;43.40;;;;;;5070329;22;20219;-46
2023/12/10 09:38:11;;;;;;;0.00;0.00;;;22.10;43.40;;;;;;5090019;28;20190;-46
2023/12/10 09:40:42;;;;;;;0.10;0.10;;;22.10;43.40;;;;;;5093175;28;20198;-48
2023/12/10 09:43:13;;;;;;;0.00;0.00;;;22.10;43.40;;;;;;5072445;28;20555;-49
2023/12/10 09:45:46;;;;;;;0.08;0.08;;;22.10;43.40;;;;;;5061531;28;20222;-45
2023/12/10 09:48:17;;;;;;;0.10;0.10;;;22.10;43.40;;;;;;5073144;28;20183;-46
2023/12/10 09:50:48;;;;;;;0.00;0.00;;;22.10;43.40;;;;;;5073328;28;20273;-45
2023/12/10 09:53:21;;;;;;;0.00;0.00;;;22.10;43.40;;;;;;5058419;28;20446;-45
2023/12/10 09:55:51;;;;;;;0.10;0.10;;;22.00;43.40;;;;;;5053666;28;20283;-50
2023/12/10 09:58:22;;;;;;;0.00;0.00;;;22.00;43.40;;;;;;5057840;28;20195;-45
2023/12/10 10:00:55;;;;;;;0.10;0.10;;;22.00;43.30;;;;;;5061048;28;20193;-45
2023/12/10 10:03:25;;;;;;;0.10;0.10;;;22.00;43.40;;;;;;5066297;28;20218;-46
2023/12/10 10:05:58;;;;;;;0.00;0.00;;;22.00;43.30;;;;;;5053276;28;20690;-46
2023/12/10 10:08:29;;;;;;;0.00;0.00;;;21.90;43.30;;;;;;5062566;28;20191;-47
2023/12/10 10:11:00;;;;;;;0.05;0.05;;;21.90;43.30;;;;;;5073251;28;20194;-45
2023/12/10 10:13:31;;;;;;;0.08;0.08;;;21.90;43.30;;;;;;5081993;28;20214;-46
2023/12/10 10:16:12;;;;;;;0.00;0.00;;;21.90;43.30;;;;;;5093795;28;20190;-45
2023/12/10 10:18:43;;;;;;;0.00;0.00;;;21.90;43.40;;;;;;5092440;28;20457;-45
2023/12/10 10:21:14;;;;;;;0.00;0.00;;;21.90;43.30;;;;;;5093284;28;20198;-49
2023/12/10 10:23:45;;;;;;;0.00;0.00;;;21.80;43.20;;;;;;5079856;28;20210;-44
2023/12/10 10:26:16;;;;;;;0.08;0.08;;;21.80;43.20;;;;;;5071831;28;20682;-44
2023/12/10 10:28:49;;;;;;;0.00;0.00;;;21.80;43.20;;;;;;5071996;28;20191;-45
2023/12/10 10:31:22;;;;;;;0.00;0.00;;;21.80;43.20;;;;;;5071443;28;20195;-46
2023/12/10 10:33:54;;;;;;;0.00;0.00;;;21.70;43.20;;;;;;5072803;28;20217;-45
2023/12/10 10:36:25;;;;;;;0.00;0.00;;;21.70;43.20;;;;;;5072667;28;20207;-45
2023/12/10 10:38:57;;;;;;;0.00;0.00;;;21.70;43.20;;;;;;5072582;28;20786;-45
2023/12/10 10:41:28;;;;;;;0.00;0.00;;;21.70;43.20;;;;;;5072591;28;20199;-44
2023/12/10 10:43:59;;;;;;;0.00;0.00;;;21.70;43.20;;;;;;5072213;28;20207;-45
2023/12/10 10:46:32;;;;;;;0.00;0.00;;;21.60;43.20;;;;;;5071683;28;20222;-45
2023/12/10 10:49:04;;;;;;;0.03;0.03;;;21.60;43.20;;;;;;5074553;28;20203;-45
2023/12/10 10:51:35;;;;;;;0.00;0.00;;;21.60;43.10;;;;;;5073022;28;20203;-45
2023/12/10 10:54:07;;;;;;;0.00;0.00;;;21.60;43.20;;;;;;5072817;28;20202;-45
2023/12/10 10:56:38;;;;;;;0.00;0.00;;;21.60;43.20;;;;;;5068784;28;20288;-45
2023/12/10 10:59:32;;;;;;;0.08;0.08;;;21.60;43.20;;;;;;5062642;28;20194;-46
2023/12/10 11:02:07;;;;;;;0.00;0.00;;;21.50;43.20;;;;;;5061336;28;20697;-44
2023/12/10 11:04:40;;;;;;;0.00;0.00;;;21.50;43.10;;;;;;5061336;28;20198;-44
2023/12/10 11:07:11;;;;;;;0.00;0.00;;;21.50;43.10;;;;;;5062177;28;20211;-46
2023/12/10 11:09:57;;;;;;;0.05;0.05;;;21.50;43.10;;;;;;5062338;28;20195;-46
2023/12/10 11:12:46;;;;;;;0.10;0.10;;;21.40;43.10;;;;;;5061463;28;20212;-44
2023/12/10 11:15:27;;;;;;;0.10;0.10;;;21.40;43.10;;;;;;5062852;28;20187;-45
2023/12/10 11:18:01;;;;;;;0.10;0.10;;;21.40;43.00;;;;;;5060373;28;20202;-45
2023/12/10 11:20:40;;;;;;;0.00;0.00;;;21.40;43.10;;;;;;5058494;28;20578;-44
2023/12/10 11:23:11;;;;;;;0.10;0.10;;;21.40;43.10;;;;;;5059975;28;20216;-46
2023/12/10 11:25:43;;;;;;;0.00;0.00;;;21.40;43.10;;;;;;5060876;28;20211;-48
2023/12/10 11:28:15;;;;;;;0.00;0.00;;;21.30;43.10;;;;;;5060571;28;20209;-45
2023/12/10 11:30:47;;;;;;;0.10;0.10;;;21.30;43.00;;;;;;5056935;28;20187;-45
2023/12/10 11:33:20;;;;;;;0.10;0.10;;;21.30;43.10;;;;;;5057046;28;20257;-46
2023/12/10 11:35:50;;;;;;;0.10;0.10;;;21.30;43.10;;;;;;5061650;28;20210;-47
2023/12/10 11:38:21;;;;;;;0.00;0.00;;;21.20;43.00;;;;;;5061557;28;20631;-44
2023/12/10 11:40:52;;;;;;;0.00;0.00;;;21.20;43.00;;;;;;5060975;28;20190;-46
2023/12/10 11:43:23;;;;;;;0.00;0.00;;;21.20;43.10;;;;;;5061278;28;20659;-45
2023/12/10 11:45:56;;;;;;;0.08;0.08;;;21.20;43.10;;;;;;5060070;28;20224;-47
2023/12/10 11:48:29;;;;;;;0.00;0.00;;;21.20;43.00;;;;;;5062903;28;20248;-44
2023/12/10 11:51:00;;;;;;;0.00;0.00;;;21.20;43.10;;;;;;5062293;28;20266;-46
2023/12/10 11:53:31;;;;;;;0.10;0.10;;;21.10;43.00;;;;;;5062037;28;20678;-45
2023/12/10 11:56:02;;;;;;;0.00;0.00;;;21.10;43.00;;;;;;5062045;28;20212;-45
2023/12/10 11:58:34;;;;;;;0.00;0.00;;;21.10;43.00;;;;;;5060741;28;20187;-44
2023/12/10 12:01:05;;;;;;;0.00;0.00;;;21.10;43.00;;;;;;5060158;28;20188;-45
2023/12/10 12:03:38;;;;;;;0.10;0.10;;;21.10;43.00;;;;;;5060956;28;20215;-46
2023/12/10 12:06:09;;;;;;;0.00;0.00;;;21.00;43.00;;;;;;5060412;28;20211;-44
2023/12/10 12:08:41;;;;;;;0.00;0.00;;;21.00;43.00;;;;;;5062295;28;20202;-45
2023/12/10 12:11:13;;;;;;;0.00;0.00;;;21.00;43.00;;;;;;5060856;28;20217;-45
2023/12/10 12:13:43;;;;;;;0.10;0.10;;;21.00;43.00;;;;;;5059507;28;20254;-47
2023/12/10 12:16:14;;;;;;;0.00;0.00;;;21.00;43.00;;;;;;5061020;28;20550;-44
2023/12/10 12:18:48;;;;;;;0.00;0.00;;;21.00;43.00;;;;;;5062247;28;20195;-44
2023/12/10 12:21:19;;;;;;;0.00;0.00;;;20.90;42.90;;;;;;5061622;28;20198;-47
2023/12/10 12:23:49;;;;;;;0.00;0.00;;;20.90;43.00;;;;;;5061940;28;20563;-47
2023/12/10 12:26:20;;;;;;;0.00;0.00;;;20.90;42.90;;;;;;5061505;28;20215;-47
2023/12/10 12:28:51;;;;;;;0.00;0.00;;;20.90;43.00;;;;;;5060214;28;20188;-46
2023/12/10 12:31:21;;;;;;;0.00;0.00;;;20.90;43.00;;;;;;5059849;28;20663;-49
2023/12/10 12:33:54;;;;;;;0.10;0.10;;;20.90;43.00;;;;;;5059781;28;20208;-46
2023/12/10 12:36:25;;;;;;;0.10;0.10;;;20.90;43.00;;;;;;5060069;28;20203;-46
2023/12/10 12:38:56;;;;;;;0.00;0.00;;;20.80;42.90;;;;;;5060799;28;20191;-46
2023/12/10 12:41:27;;;;;;;0.10;0.10;;;20.80;42.90;;;;;;5061885;28;20198;-48
2023/12/10 12:43:58;;;;;;;0.00;0.00;;;20.80;42.90;;;;;;5061064;28;20215;-44
2023/12/10 12:46:29;;;;;;;0.03;0.03;;;20.80;42.90;;;;;;5061691;28;20276;-46
2023/12/10 12:49:01;;;;;;;0.10;0.10;;;20.80;42.90;;;;;;5061464;28;20636;-44
2023/12/10 12:51:32;;;;;;;0.10;0.10;;;20.70;42.90;;;;;;5060370;28;20191;-47
2023/12/10 12:54:03;;;;;;;0.10;0.10;;;20.70;42.90;;;;;;5062363;28;20187;-48
2023/12/10 12:56:34;;;;;;;0.08;0.08;;;20.70;42.90;;;;;;5067474;28;20677;-47
2023/12/10 12:59:05;;;;;;;0.10;0.10;;;20.70;42.90;;;;;;5075295;28;20205;-48
2023/12/10 13:01:35;;;;;;;0.10;0.10;;;20.70;42.90;;;;;;5071545;28;20553;-44
2023/12/10 13:04:08;;;;;;;0.05;0.05;;;20.70;42.90;;;;;;5075089;28;20198;-45
2023/12/10 13:06:39;;;;;;;0.00;0.00;;;20.70;42.90;;;;;;5074884;28;20230;-45
2023/12/10 13:09:10;;;;;;;0.10;0.10;;;20.60;42.80;;;;;;5074910;28;20195;-46
2023/12/10 13:11:40;;;;;;;0.00;0.00;;;20.60;42.80;;;;;;5074785;28;20194;-47
2023/12/10 13:14:11;;;;;;;0.10;0.10;;;20.60;42.80;;;;;;5074751;28;20195;-45